Search for airport 
image banner adimage banner adimage banner ad
image banner ad

1IA3 - Spencer Muni Hospital

Located in Spencer, United States

ICAO - 1IA3, IATA -

Data provided by Airmate  

General information

Coordinates: N43°9'1" W95°8'34"
Elevation is 1314 feet MSL.
Magnetic variation is 05° East
View others Airports in Iowa

Operational data

Special qualification required
Current time UTC:
Current local time:
Weather at : KSPW - Spencer Muni ( 5 km )
METAR: KSPW 150853Z AUTO 30004KT 10SM CLR 13/09 A3013 RMK AO2 SLP197 T01330089 51003 TSNO
View NOTAMs / SUP AIP / TFR affecting this airport [VIEW]
Communications frequencies: [VIEW]

Runways:

Airport contact information

Address: Spencer United States

Satellite view of 1IA3